Time;durP1;ratioP1;P1;durP2;ratioP2;P2;SDS_P1;SDS_P2;PMS_P1;PMS_P2;Temp;Humidity;BMP_temperature;BMP_pressure;BME280_temperature;BME280_humidity;BME280_pressure;Samples;Min_cycle;Max_cycle;Signal;HPM_P1;HPM_P2
2022/02/20 00:01:58;;;;;;;7.27;2.17;;;;;;;;;;4999971;28;20200;-56
2022/02/20 00:04:25;;;;;;;6.07;2.33;;;;;;;;;;5024224;28;20611;-56
2022/02/20 00:06:51;;;;;;;3.43;1.87;;;;;;;;;;4990286;28;20187;-56
2022/02/20 00:09:17;;;;;;;2.87;1.83;;;;;;;;;;5007788;28;20264;-56
2022/02/20 00:11:43;;;;;;;5.03;2.07;;;;;;;;;;5013588;28;20233;-56
2022/02/20 00:14:10;;;;;;;3.53;2.23;;;;;;;;;;5008109;28;20202;-56
2022/02/20 00:16:37;;;;;;;3.83;1.80;;;;;;;;;;4989680;28;20654;-56
2022/02/20 00:19:03;;;;;;;4.07;2.10;;;;;;;;;;5009237;28;20209;-56
2022/02/20 00:21:30;;;;;;;4.20;2.07;;;;;;;;;;4974081;28;20183;-56
2022/02/20 00:23:56;;;;;;;4.10;2.00;;;;;;;;;;5007077;28;20186;-56
2022/02/20 00:26:23;;;;;;;4.83;1.90;;;;;;;;;;4990785;28;20179;-56
2022/02/20 00:28:49;;;;;;;3.13;1.63;;;;;;;;;;5008594;28;20249;-56
2022/02/20 00:31:15;;;;;;;4.90;2.87;;;;;;;;;;5010506;28;20213;-56
2022/02/20 00:33:41;;;;;;;2.03;1.60;;;;;;;;;;5010639;28;20572;-56
2022/02/20 00:36:07;;;;;;;3.27;2.07;;;;;;;;;;5010846;28;20470;-56
2022/02/20 00:38:33;;;;;;;2.80;1.70;;;;;;;;;;5010727;28;20195;-56
2022/02/20 00:40:59;;;;;;;5.30;2.13;;;;;;;;;;5009421;28;20183;-56
2022/02/20 00:43:25;;;;;;;3.37;1.70;;;;;;;;;;5008659;28;20219;-56
2022/02/20 00:45:52;;;;;;;3.87;2.03;;;;;;;;;;5010728;28;20237;-56
2022/02/20 00:48:20;;;;;;;4.70;1.90;;;;;;;;;;5044038;28;20217;-56
2022/02/20 00:50:47;;;;;;;6.43;2.30;;;;;;;;;;5030604;28;20656;-56
2022/02/20 00:53:13;;;;;;;5.67;2.20;;;;;;;;;;5012737;28;20186;-56
2022/02/20 00:55:39;;;;;;;5.80;1.73;;;;;;;;;;5033627;28;20189;-57
2022/02/20 00:58:06;;;;;;;4.73;2.00;;;;;;;;;;5011705;28;20214;-56
2022/02/20 01:00:32;;;;;;;6.30;2.13;;;;;;;;;;5029246;28;20166;-56
2022/02/20 01:02:58;;;;;;;4.97;3.10;;;;;;;;;;5032203;28;20190;-56
2022/02/20 01:05:25;;;;;;;2.43;1.90;;;;;;;;;;5029738;28;20189;-57
2022/02/20 01:07:51;;;;;;;2.97;1.67;;;;;;;;;;5027982;28;20257;-56
2022/02/20 01:10:19;;;;;;;7.27;2.10;;;;;;;;;;5029767;28;20186;-56
2022/02/20 01:12:45;;;;;;;5.80;1.87;;;;;;;;;;5028265;28;20197;-56
2022/02/20 01:15:13;;;;;;;5.23;2.00;;;;;;;;;;5027724;28;20181;-56
2022/02/20 01:17:39;;;;;;;2.90;1.93;;;;;;;;;;5028847;28;20186;-56
2022/02/20 01:20:06;;;;;;;3.60;2.10;;;;;;;;;;5011556;28;20181;-56
2022/02/20 01:22:32;;;;;;;2.70;1.90;;;;;;;;;;5029936;28;20221;-56
2022/02/20 01:24:59;;;;;;;5.97;2.23;;;;;;;;;;5012276;28;20181;-56
2022/02/20 01:27:25;;;;;;;3.30;1.70;;;;;;;;;;4995296;28;20580;-56
2022/02/20 01:29:52;;;;;;;5.63;2.00;;;;;;;;;;5011452;28;20182;-56
2022/02/20 01:32:18;;;;;;;3.13;2.00;;;;;;;;;;5028977;28;20539;-56
2022/02/20 01:34:44;;;;;;;1.53;1.43;;;;;;;;;;5021096;28;20191;-56
2022/02/20 01:37:10;;;;;;;4.27;2.03;;;;;;;;;;5028508;28;20598;-56
2022/02/20 01:39:37;;;;;;;4.73;1.73;;;;;;;;;;5015732;28;20200;-56
2022/02/20 01:42:03;;;;;;;4.13;2.47;;;;;;;;;;5029597;28;20683;-56
2022/02/20 01:44:29;;;;;;;4.80;1.77;;;;;;;;;;5011181;28;21356;-56
2022/02/20 01:47:02;;;;;;;4.23;1.70;;;;;;;;;;5008605;28;20199;-56
2022/02/20 01:49:28;;;;;;;3.27;1.60;;;;;;;;;;5021141;28;20236;-56
2022/02/20 01:51:54;;;;;;;5.60;2.73;;;;;;;;;;5027610;28;20267;-56
2022/02/20 01:54:20;;;;;;;4.40;2.10;;;;;;;;;;5010848;28;20181;-56
2022/02/20 01:56:47;;;;;;;4.13;1.70;;;;;;;;;;5029023;28;20198;-56
2022/02/20 01:59:14;;;;;;;4.07;1.77;;;;;;;;;;5011425;28;20188;-56
2022/02/20 02:01:40;;;;;;;4.57;2.50;;;;;;;;;;4999910;28;20184;-56
2022/02/20 02:04:06;;;;;;;5.27;1.70;;;;;;;;;;5025290;28;20169;-56
2022/02/20 02:06:32;;;;;;;2.70;1.63;;;;;;;;;;5028541;28;20236;-56
2022/02/20 02:09:02;;;;;;;3.80;1.60;;;;;;;;;;5020588;28;20177;-56
2022/02/20 02:11:30;;;;;;;3.40;1.63;;;;;;;;;;5011952;28;20238;-56
2022/02/20 02:13:56;;;;;;;4.23;1.80;;;;;;;;;;5011542;28;20185;-56
2022/02/20 02:16:23;;;;;;;3.23;1.50;;;;;;;;;;5010956;28;20182;-56
2022/02/20 02:18:49;;;;;;;3.93;2.27;;;;;;;;;;5009258;28;20447;-56
2022/02/20 02:21:15;;;;;;;4.53;2.20;;;;;;;;;;5011019;28;20184;-56
2022/02/20 02:23:42;;;;;;;3.60;1.70;;;;;;;;;;5010852;28;20609;-56
2022/02/20 02:26:08;;;;;;;4.80;1.67;;;;;;;;;;5028463;28;20198;-56
2022/02/20 02:28:35;;;;;;;4.00;1.97;;;;;;;;;;5015842;28;20244;-56
2022/02/20 02:31:04;;;;;;;2.33;1.60;;;;;;;;;;5022304;28;20220;-56
2022/02/20 02:33:31;;;;;;;6.00;2.00;;;;;;;;;;5008036;28;20208;-56
2022/02/20 02:35:58;;;;;;;3.17;1.87;;;;;;;;;;5026373;28;20676;-56
2022/02/20 02:38:29;;;;;;;3.23;1.87;;;;;;;;;;5034827;28;20205;-56
2022/02/20 02:40:57;;;;;;;2.87;1.70;;;;;;;;;;5009752;28;20177;-56
2022/02/20 02:43:23;;;;;;;3.17;1.50;;;;;;;;;;5023974;28;20174;-56
2022/02/20 02:45:50;;;;;;;3.80;1.60;;;;;;;;;;5025851;28;20641;-56
2022/02/20 02:48:16;;;;;;;4.93;1.90;;;;;;;;;;5030355;28;20210;-56
2022/02/20 02:50:43;;;;;;;2.87;1.70;;;;;;;;;;5033004;28;20615;-56
2022/02/20 02:53:09;;;;;;;3.50;1.50;;;;;;;;;;5046391;28;20177;-56
2022/02/20 02:55:35;;;;;;;2.53;1.90;;;;;;;;;;5029089;28;20173;-56
2022/02/20 02:58:01;;;;;;;4.03;1.63;;;;;;;;;;5022160;28;20453;-56
2022/02/20 03:00:31;;;;;;;5.10;2.00;;;;;;;;;;5034689;28;20188;-56
2022/02/20 03:02:57;;;;;;;5.57;2.00;;;;;;;;;;5011882;28;20205;-56
2022/02/20 03:05:23;;;;;;;2.70;2.07;;;;;;;;;;5042099;28;20181;-56
2022/02/20 03:07:49;;;;;;;4.97;1.90;;;;;;;;;;5041321;28;21109;-56
2022/02/20 03:10:16;;;;;;;4.20;1.87;;;;;;;;;;5026881;28;20170;-56
2022/02/20 03:12:42;;;;;;;2.53;1.43;;;;;;;;;;5008032;28;20193;-56
2022/02/20 03:15:10;;;;;;;3.03;2.00;;;;;;;;;;5026970;28;20528;-56
2022/02/20 03:17:36;;;;;;;5.67;2.13;;;;;;;;;;5008139;28;20197;-56
2022/02/20 03:20:03;;;;;;;3.20;1.90;;;;;;;;;;5011614;28;20181;-57
2022/02/20 03:22:29;;;;;;;2.00;1.80;;;;;;;;;;5026670;28;20192;-56
2022/02/20 03:24:55;;;;;;;2.63;1.80;;;;;;;;;;5029401;28;20311;-56
2022/02/20 03:27:21;;;;;;;1.97;1.73;;;;;;;;;;5019827;28;20763;-56
2022/02/20 03:29:48;;;;;;;2.30;1.83;;;;;;;;;;4989772;28;20178;-56
2022/02/20 03:32:14;;;;;;;6.07;2.00;;;;;;;;;;4990182;28;20183;-56
2022/02/20 03:34:41;;;;;;;3.70;1.70;;;;;;;;;;5006259;28;20178;-56
2022/02/20 03:37:07;;;;;;;3.03;1.70;;;;;;;;;;5008022;28;20182;-56
2022/02/20 03:39:33;;;;;;;5.10;1.90;;;;;;;;;;5007124;28;20506;-56
2022/02/20 03:42:02;;;;;;;1.87;1.60;;;;;;;;;;4990162;28;20179;-56
2022/02/20 03:44:29;;;;;;;2.73;1.70;;;;;;;;;;4989667;28;20281;-56
2022/02/20 03:46:55;;;;;;;2.60;1.70;;;;;;;;;;5007551;28;20179;-56
2022/02/20 03:49:22;;;;;;;2.03;1.40;;;;;;;;;;5006613;28;20194;-55
2022/02/20 03:51:48;;;;;;;2.53;1.60;;;;;;;;;;5006304;28;20590;-56
2022/02/20 03:54:14;;;;;;;2.67;1.57;;;;;;;;;;5007320;28;20181;-56
2022/02/20 03:56:40;;;;;;;1.63;1.13;;;;;;;;;;5007750;28;20187;-56
2022/02/20 03:59:06;;;;;;;3.13;1.60;;;;;;;;;;4989275;28;20653;-56
2022/02/20 04:01:32;;;;;;;2.07;1.30;;;;;;;;;;5011049;28;20537;-56
2022/02/20 04:03:59;;;;;;;3.03;1.30;;;;;;;;;;4992223;28;20665;-56
2022/02/20 04:06:25;;;;;;;3.27;1.47;;;;;;;;;;4993408;28;20178;-56
2022/02/20 04:08:51;;;;;;;3.77;1.77;;;;;;;;;;4993261;28;20193;-56
2022/02/20 04:11:17;;;;;;;1.50;1.30;;;;;;;;;;4993736;28;20186;-56
2022/02/20 04:13:43;;;;;;;2.20;1.47;;;;;;;;;;5010899;28;20186;-56
2022/02/20 04:16:09;;;;;;;4.83;1.97;;;;;;;;;;5011446;28;20194;-56
2022/02/20 04:18:35;;;;;;;2.67;1.50;;;;;;;;;;5009760;28;20198;-56
2022/02/20 04:21:01;;;;;;;2.67;2.30;;;;;;;;;;5011186;28;20528;-56
2022/02/20 04:23:30;;;;;;;2.73;1.83;;;;;;;;;;5011190;28;20175;-56
2022/02/20 04:26:01;;;;;;;3.07;2.10;;;;;;;;;;5009294;28;20174;-56
2022/02/20 04:28:28;;;;;;;4.93;1.70;;;;;;;;;;4992829;28;20692;-56
2022/02/20 04:30:54;;;;;;;3.23;1.63;;;;;;;;;;5031060;28;20220;-56
2022/02/20 04:33:20;;;;;;;3.20;2.53;;;;;;;;;;5029445;28;20178;-55
2022/02/20 04:35:47;;;;;;;3.93;1.70;;;;;;;;;;5012288;28;20660;-56
2022/02/20 04:38:13;;;;;;;3.33;1.67;;;;;;;;;;5029576;28;20201;-56
2022/02/20 04:40:39;;;;;;;4.20;1.83;;;;;;;;;;5029728;28;20178;-56
2022/02/20 04:43:06;;;;;;;2.37;1.50;;;;;;;;;;5029867;28;20557;-56
2022/02/20 04:45:32;;;;;;;2.67;1.80;;;;;;;;;;5012401;28;20177;-56
2022/02/20 04:47:58;;;;;;;6.13;2.03;;;;;;;;;;5029531;28;20193;-56
2022/02/20 04:50:24;;;;;;;3.57;1.87;;;;;;;;;;5029067;28;20192;-56
2022/02/20 04:52:50;;;;;;;3.53;1.80;;;;;;;;;;5030387;28;20178;-56
2022/02/20 04:55:16;;;;;;;2.97;1.80;;;;;;;;;;5029476;28;20277;-56
2022/02/20 04:57:42;;;;;;;3.43;1.53;;;;;;;;;;5029843;28;20244;-56
2022/02/20 05:00:10;;;;;;;4.77;2.53;;;;;;;;;;5013635;28;20177;-56
2022/02/20 05:02:36;;;;;;;6.67;2.20;;;;;;;;;;5029414;28;20174;-56
2022/02/20 05:05:02;;;;;;;2.77;1.67;;;;;;;;;;5029476;28;20210;-56
2022/02/20 05:07:29;;;;;;;3.27;1.77;;;;;;;;;;5027471;28;20563;-56
2022/02/20 05:09:56;;;;;;;2.20;1.83;;;;;;;;;;5011433;28;20276;-56
2022/02/20 05:12:22;;;;;;;3.33;1.87;;;;;;;;;;5026904;28;20189;-56
2022/02/20 05:14:48;;;;;;;3.60;1.90;;;;;;;;;;5029059;28;20182;-56
2022/02/20 05:17:16;;;;;;;5.87;2.23;;;;;;;;;;5029556;28;20181;-56
2022/02/20 05:19:42;;;;;;;4.70;2.73;;;;;;;;;;5010462;28;20186;-56
2022/02/20 05:22:08;;;;;;;5.73;1.90;;;;;;;;;;5030117;28;20185;-56
2022/02/20 05:24:34;;;;;;;2.63;1.73;;;;;;;;;;5028556;28;20629;-56
2022/02/20 05:27:00;;;;;;;2.57;2.07;;;;;;;;;;5029460;28;20275;-56
2022/02/20 05:29:26;;;;;;;4.53;2.30;;;;;;;;;;5036013;28;20169;-56
2022/02/20 05:31:52;;;;;;;3.00;1.77;;;;;;;;;;5034401;28;20192;-56
2022/02/20 05:34:22;;;;;;;3.57;1.90;;;;;;;;;;5028315;28;20887;-55
2022/02/20 05:36:48;;;;;;;5.47;2.30;;;;;;;;;;5029592;28;20219;-56
2022/02/20 05:39:14;;;;;;;4.60;2.30;;;;;;;;;;5011027;28;20733;-56
2022/02/20 05:41:40;;;;;;;5.83;2.40;;;;;;;;;;5011439;28;20665;-56
2022/02/20 05:44:06;;;;;;;3.03;2.20;;;;;;;;;;5035667;28;20558;-56
2022/02/20 05:46:33;;;;;;;3.27;2.47;;;;;;;;;;5027727;28;20177;-56
2022/02/20 05:49:00;;;;;;;3.93;2.27;;;;;;;;;;5027992;28;20684;-56
2022/02/20 05:51:26;;;;;;;3.60;2.27;;;;;;;;;;5021261;28;20226;-56
2022/02/20 05:53:52;;;;;;;4.33;2.40;;;;;;;;;;5010486;28;20567;-56
2022/02/20 05:56:19;;;;;;;3.90;2.77;;;;;;;;;;5011925;28;20213;-56
2022/02/20 05:58:45;;;;;;;4.43;2.70;;;;;;;;;;5010513;28;20201;-56
2022/02/20 06:01:12;;;;;;;3.17;2.77;;;;;;;;;;5017366;28;20189;-56
2022/02/20 06:03:38;;;;;;;3.30;3.00;;;;;;;;;;5027495;28;20174;-56
2022/02/20 06:06:04;;;;;;;8.60;3.07;;;;;;;;;;5028059;28;20184;-56
2022/02/20 06:08:30;;;;;;;4.97;3.10;;;;;;;;;;5010687;28;20872;-56
2022/02/20 06:10:57;;;;;;;4.17;2.87;;;;;;;;;;5029713;28;20196;-56
2022/02/20 06:13:23;;;;;;;3.53;2.80;;;;;;;;;;5027722;28;20305;-56
2022/02/20 06:15:49;;;;;;;4.27;2.90;;;;;;;;;;5024761;28;20654;-56
2022/02/20 06:18:19;;;;;;;7.23;3.23;;;;;;;;;;5008752;28;20212;-56
2022/02/20 06:20:45;;;;;;;4.37;3.67;;;;;;;;;;5008540;28;20182;-57
2022/02/20 06:23:12;;;;;;;3.90;3.00;;;;;;;;;;5008941;28;20217;-57
2022/02/20 06:25:38;;;;;;;4.93;3.40;;;;;;;;;;5021785;28;20213;-57
2022/02/20 06:28:05;;;;;;;5.00;3.50;;;;;;;;;;5002637;28;20229;-57
2022/02/20 06:30:31;;;;;;;4.80;3.30;;;;;;;;;;4993824;28;20186;-56
2022/02/20 06:32:57;;;;;;;3.37;3.07;;;;;;;;;;5010892;28;20200;-57
2022/02/20 06:35:23;;;;;;;5.20;3.67;;;;;;;;;;5004729;28;20649;-57
2022/02/20 06:37:55;;;;;;;4.90;3.37;;;;;;;;;;5015451;28;20213;-57
2022/02/20 06:40:21;;;;;;;8.43;4.50;;;;;;;;;;4996508;28;20205;-57
2022/02/20 06:42:47;;;;;;;7.17;4.23;;;;;;;;;;4999455;28;20173;-57
2022/02/20 06:45:14;;;;;;;6.07;3.80;;;;;;;;;;5015596;28;20712;-57
2022/02/20 06:47:40;;;;;;;6.20;3.83;;;;;;;;;;5017531;28;20677;-57
2022/02/20 06:50:06;;;;;;;6.63;4.17;;;;;;;;;;5006566;28;20740;-57
2022/02/20 06:52:32;;;;;;;6.63;4.37;;;;;;;;;;5012224;28;20189;-57
2022/02/20 06:54:58;;;;;;;7.23;4.20;;;;;;;;;;5010550;28;20190;-57
2022/02/20 06:57:27;;;;;;;8.87;4.87;;;;;;;;;;5014690;28;20193;-57
2022/02/20 06:59:54;;;;;;;7.20;3.80;;;;;;;;;;5011569;28;20538;-57
2022/02/20 07:02:23;;;;;;;7.70;3.80;;;;;;;;;;4991649;28;20692;-57
2022/02/20 07:04:49;;;;;;;10.20;3.93;;;;;;;;;;4991947;28;20279;-57
2022/02/20 07:07:16;;;;;;;11.90;4.17;;;;;;;;;;4980023;28;20197;-57
2022/02/20 07:09:42;;;;;;;5.80;3.60;;;;;;;;;;4997755;28;20181;-57
2022/02/20 07:12:09;;;;;;;7.00;3.60;;;;;;;;;;4990335;28;21244;-57
2022/02/20 07:14:35;;;;;;;7.40;4.13;;;;;;;;;;4994077;28;20289;-57
2022/02/20 07:17:02;;;;;;;4.67;3.37;;;;;;;;;;5016159;28;20182;-57
2022/02/20 07:19:28;;;;;;;5.37;3.63;;;;;;;;;;5001737;28;20656;-57
2022/02/20 07:21:54;;;;;;;6.53;3.87;;;;;;;;;;5001140;28;20244;-57
2022/02/20 07:24:21;;;;;;;6.57;3.60;;;;;;;;;;4989984;28;20186;-57
2022/02/20 07:26:50;;;;;;;5.97;3.53;;;;;;;;;;4995747;28;20184;-57
2022/02/20 07:29:16;;;;;;;4.57;3.50;;;;;;;;;;5007421;28;20170;-57
2022/02/20 07:31:43;;;;;;;6.23;3.67;;;;;;;;;;4997023;28;20209;-57
2022/02/20 07:34:09;;;;;;;9.77;4.00;;;;;;;;;;4988864;28;20189;-56
2022/02/20 07:36:41;;;;;;;7.27;3.37;;;;;;;;;;5017427;28;20185;-56
2022/02/20 07:39:07;;;;;;;9.30;3.90;;;;;;;;;;5011995;28;20802;-56
2022/02/20 07:41:33;;;;;;;7.90;3.77;;;;;;;;;;4994888;28;20557;-56
2022/02/20 07:43:59;;;;;;;7.23;3.37;;;;;;;;;;4992751;28;20186;-56
2022/02/20 07:46:26;;;;;;;5.40;3.20;;;;;;;;;;4990827;28;20273;-56
2022/02/20 07:48:55;;;;;;;7.00;3.63;;;;;;;;;;5004245;28;20193;-56
2022/02/20 07:51:21;;;;;;;7.60;3.67;;;;;;;;;;4997982;28;20194;-56
2022/02/20 07:53:51;;;;;;;9.20;3.10;;;;;;;;;;5011789;28;20229;-56
2022/02/20 07:56:17;;;;;;;6.30;2.57;;;;;;;;;;4996092;28;20221;-56
2022/02/20 07:58:44;;;;;;;9.07;4.40;;;;;;;;;;4996793;28;20684;-57
2022/02/20 08:01:13;;;;;;;7.23;2.47;;;;;;;;;;5017594;28;20261;-56
2022/02/20 08:03:39;;;;;;;7.20;2.80;;;;;;;;;;5010801;28;20362;-58
2022/02/20 08:06:06;;;;;;;8.63;2.90;;;;;;;;;;5022100;28;20516;-57
2022/02/20 08:08:35;;;;;;;11.23;3.27;;;;;;;;;;5004852;28;20540;-56
2022/02/20 08:11:02;;;;;;;8.97;3.23;;;;;;;;;;4994201;28;20662;-56
2022/02/20 08:13:29;;;;;;;8.13;2.87;;;;;;;;;;5014697;28;20182;-57
2022/02/20 08:15:55;;;;;;;6.57;2.20;;;;;;;;;;4994186;28;20281;-56
2022/02/20 08:18:21;;;;;;;6.37;2.30;;;;;;;;;;5016072;28;20252;-56
2022/02/20 08:20:48;;;;;;;6.03;3.10;;;;;;;;;;5010526;28;20182;-56
2022/02/20 08:23:17;;;;;;;6.73;2.60;;;;;;;;;;5010552;28;20178;-56
2022/02/20 08:25:46;;;;;;;4.87;2.33;;;;;;;;;;5012021;28;20179;-55
2022/02/20 08:28:13;;;;;;;5.70;2.73;;;;;;;;;;5021618;28;20230;-57
2022/02/20 08:30:44;;;;;;;10.07;2.53;;;;;;;;;;5026926;28;20186;-57
2022/02/20 08:33:20;;;;;;;6.63;3.00;;;;;;;;;;5020226;28;20183;-57
2022/02/20 08:35:46;;;;;;;7.90;2.47;;;;;;;;;;5001843;28;20186;-56
2022/02/20 08:38:12;;;;;;;5.70;2.37;;;;;;;;;;5024820;28;20198;-57
2022/02/20 08:40:40;;;;;;;5.90;2.80;;;;;;;;;;5027111;28;20522;-56
2022/02/20 08:43:07;;;;;;;6.83;2.20;;;;;;;;;;5017100;28;20186;-56
2022/02/20 08:45:33;;;;;;;6.07;2.57;;;;;;;;;;5023070;28;20733;-57
2022/02/20 08:47:59;;;;;;;9.20;2.50;;;;;;;;;;5026847;28;20193;-57
2022/02/20 08:50:25;;;;;;;6.60;1.87;;;;;;;;;;5013081;28;20205;-57
2022/02/20 08:52:52;;;;;;;4.87;2.33;;;;;;;;;;5029187;28;20188;-57
2022/02/20 08:55:19;;;;;;;7.20;2.13;;;;;;;;;;5016720;28;20190;-57
2022/02/20 08:57:45;;;;;;;5.20;2.57;;;;;;;;;;5014298;28;20205;-58
2022/02/20 09:00:13;;;;;;;25.40;4.63;;;;;;;;;;5015490;28;20186;-56
2022/02/20 09:02:39;;;;;;;14.83;3.70;;;;;;;;;;5014769;28;20178;-57
2022/02/20 09:05:06;;;;;;;12.40;3.37;;;;;;;;;;5026034;28;20192;-57
2022/02/20 09:07:35;;;;;;;19.27;3.47;;;;;;;;;;5029659;28;20185;-57
2022/02/20 09:10:04;;;;;;;8.63;2.80;;;;;;;;;;5029547;28;20273;-57
2022/02/20 09:12:30;;;;;;;8.67;3.80;;;;;;;;;;5010304;28;20281;-57
2022/02/20 09:14:56;;;;;;;6.40;2.40;;;;;;;;;;5027610;28;20185;-57
2022/02/20 09:17:22;;;;;;;6.00;2.20;;;;;;;;;;5035812;28;20182;-56
2022/02/20 09:19:49;;;;;;;13.23;3.03;;;;;;;;;;5010465;28;20173;-57
2022/02/20 09:22:16;;;;;;;7.60;2.20;;;;;;;;;;5032975;28;20608;-57
2022/02/20 09:24:42;;;;;;;8.83;2.70;;;;;;;;;;5010791;28;20173;-57
2022/02/20 09:27:08;;;;;;;8.23;2.10;;;;;;;;;;5027757;28;20226;-57
2022/02/20 09:29:35;;;;;;;4.20;2.10;;;;;;;;;;5013118;28;20190;-57
2022/02/20 09:32:02;;;;;;;4.90;2.30;;;;;;;;;;5026640;28;20279;-57
2022/02/20 09:34:29;;;;;;;4.07;1.93;;;;;;;;;;5006522;28;20186;-57
2022/02/20 09:36:58;;;;;;;4.07;2.03;;;;;;;;;;5020427;28;20194;-57
2022/02/20 09:39:24;;;;;;;6.73;2.20;;;;;;;;;;5016825;28;20284;-57
2022/02/20 09:41:51;;;;;;;7.67;2.27;;;;;;;;;;5033351;28;20680;-57
2022/02/20 09:44:17;;;;;;;9.77;2.83;;;;;;;;;;5028595;28;20656;-57
2022/02/20 09:46:44;;;;;;;6.17;1.93;;;;;;;;;;5011638;28;20174;-57
2022/02/20 09:49:10;;;;;;;7.30;2.40;;;;;;;;;;5014475;28;20176;-57
2022/02/20 09:51:36;;;;;;;6.17;1.87;;;;;;;;;;5009635;28;20190;-57
2022/02/20 09:54:03;;;;;;;5.10;2.10;;;;;;;;;;5043672;28;20189;-57
2022/02/20 09:56:31;;;;;;;3.90;1.93;;;;;;;;;;5026910;28;20235;-57
2022/02/20 09:58:58;;;;;;;2.90;1.90;;;;;;;;;;5023798;28;20216;-57
2022/02/20 10:01:24;;;;;;;4.10;2.00;;;;;;;;;;5012999;28;20879;-56
2022/02/20 10:03:51;;;;;;;2.63;2.07;;;;;;;;;;5011352;28;20185;-57
2022/02/20 10:06:20;;;;;;;3.47;1.90;;;;;;;;;;5019631;28;20179;-57
2022/02/20 10:08:51;;;;;;;2.63;1.67;;;;;;;;;;5024213;28;20185;-57
2022/02/20 10:11:22;;;;;;;2.67;2.37;;;;;;;;;;5036961;28;20216;-57
2022/02/20 10:13:49;;;;;;;3.17;1.90;;;;;;;;;;5019626;28;20230;-57
2022/02/20 10:16:26;;;;;;;3.87;2.20;;;;;;;;;;5004587;28;20265;-57
2022/02/20 10:18:56;;;;;;;3.10;1.90;;;;;;;;;;5012835;28;20484;-57
2022/02/20 10:21:22;;;;;;;2.50;1.63;;;;;;;;;;5029465;28;20220;-57
2022/02/20 10:23:49;;;;;;;3.97;2.10;;;;;;;;;;5028149;28;20182;-57
2022/02/20 10:26:23;;;;;;;3.83;1.93;;;;;;;;;;5006442;28;20190;-57
2022/02/20 10:28:59;;;;;;;3.23;1.97;;;;;;;;;;5027491;28;20229;-57
2022/02/20 10:31:48;;;;;;;3.90;2.10;;;;;;;;;;5007577;28;21374;-57
2022/02/20 10:34:15;;;;;;;4.43;1.90;;;;;;;;;;5000763;28;20194;-57
2022/02/20 10:36:45;;;;;;;2.83;1.70;;;;;;;;;;5010114;28;20190;-57
2022/02/20 10:39:18;;;;;;;7.15;2.05;;;;;;;;;;5024858;28;20352;-57
2022/02/20 10:41:45;;;;;;;4.60;1.87;;;;;;;;;;5010657;28;20178;-57
2022/02/20 10:44:11;;;;;;;2.50;1.80;;;;;;;;;;5028094;28;20228;-57
2022/02/20 10:46:37;;;;;;;4.57;2.10;;;;;;;;;;5017842;28;20789;-57
2022/02/20 10:49:03;;;;;;;5.57;1.70;;;;;;;;;;5025428;28;20239;-56
2022/02/20 10:51:41;;;;;;;3.40;1.87;;;;;;;;;;5015474;28;20185;-56
2022/02/20 10:54:08;;;;;;;3.00;1.67;;;;;;;;;;5044867;28;20191;-57
2022/02/20 10:56:39;;;;;;;4.20;1.83;;;;;;;;;;5039764;28;20288;-56
2022/02/20 10:59:05;;;;;;;3.37;1.90;;;;;;;;;;5027153;28;20663;-58
2022/02/20 11:01:31;;;;;;;3.73;1.93;;;;;;;;;;5035585;28;20181;-56
2022/02/20 11:04:04;;;;;;;3.87;1.53;;;;;;;;;;5028098;28;20257;-57
2022/02/20 11:06:31;;;;;;;4.23;2.43;;;;;;;;;;5011026;28;20185;-56
2022/02/20 11:08:58;;;;;;;5.53;2.70;;;;;;;;;;5040826;28;20173;-56
2022/02/20 11:11:36;;;;;;;3.23;1.97;;;;;;;;;;5027666;28;20182;-57
2022/02/20 11:14:03;;;;;;;3.83;2.10;;;;;;;;;;5032828;28;20321;-57
2022/02/20 11:16:31;;;;;;;5.27;2.00;;;;;;;;;;5028774;28;20228;-57
2022/02/20 11:18:57;;;;;;;9.57;2.73;;;;;;;;;;5024727;28;20209;-56
2022/02/20 11:21:26;;;;;;;6.90;2.23;;;;;;;;;;5027293;28;20177;-56
2022/02/20 11:23:55;;;;;;;2.83;1.80;;;;;;;;;;5022567;28;20223;-56
2022/02/20 11:26:21;;;;;;;5.30;2.67;;;;;;;;;;5009029;28;20182;-56
2022/02/20 11:28:48;;;;;;;5.10;2.37;;;;;;;;;;5026369;28;20720;-56
2022/02/20 11:31:19;;;;;;;5.53;2.17;;;;;;;;;;5008206;28;20267;-56
2022/02/20 11:33:51;;;;;;;5.67;2.77;;;;;;;;;;5025041;28;20276;-56
2022/02/20 11:36:18;;;;;;;5.20;2.20;;;;;;;;;;5011308;28;20182;-57
2022/02/20 11:39:01;;;;;;;4.60;2.37;;;;;;;;;;5023115;28;20425;-57
2022/02/20 11:41:27;;;;;;;6.70;2.80;;;;;;;;;;5026155;28;20691;-57
2022/02/20 11:43:53;;;;;;;8.53;2.10;;;;;;;;;;5026943;28;20205;-57
2022/02/20 11:46:26;;;;;;;3.20;2.10;;;;;;;;;;5023392;28;20236;-56
2022/02/20 11:49:05;;;;;;;5.87;2.00;;;;;;;;;;5019144;28;20272;-56
2022/02/20 11:51:32;;;;;;;6.90;2.57;;;;;;;;;;5024664;28;20711;-56
2022/02/20 11:54:30;;;;;;;10.47;2.33;;;;;;;;;;5016308;28;20185;-56
2022/02/20 11:57:28;;;;;;;6.77;2.40;;;;;;;;;;5009539;28;20214;-57
2022/02/20 12:00:03;;;;;;;5.00;2.27;;;;;;;;;;5023246;28;20201;-56
2022/02/20 12:02:32;;;;;;;5.20;2.10;;;;;;;;;;5029708;28;20173;-56
2022/02/20 12:04:58;;;;;;;6.10;2.37;;;;;;;;;;5026920;28;20636;-57
2022/02/20 12:07:38;;;;;;;6.07;2.10;;;;;;;;;;5032146;28;20170;-57
2022/02/20 12:10:20;;;;;;;6.73;2.50;;;;;;;;;;4999308;28;20182;-57
2022/02/20 12:12:53;;;;;;;6.67;2.50;;;;;;;;;;5032012;28;20213;-57
2022/02/20 12:15:39;;;;;;;10.77;2.63;;;;;;;;;;5025318;28;20182;-57
2022/02/20 12:18:13;;;;;;;6.57;2.23;;;;;;;;;;5028934;28;20212;-57
2022/02/20 12:20:54;;;;;;;6.00;2.77;;;;;;;;;;5026282;28;20204;-57
2022/02/20 12:23:34;;;;;;;5.93;2.30;;;;;;;;;;5029682;28;20758;-57
2022/02/20 12:26:03;;;;;;;5.70;2.77;;;;;;;;;;5011846;28;20184;-57
2022/02/20 12:28:33;;;;;;;6.90;2.90;;;;;;;;;;5033066;28;20642;-57
2022/02/20 12:31:09;;;;;;;4.57;2.33;;;;;;;;;;5030866;28;20196;-57
2022/02/20 12:33:36;;;;;;;3.93;2.13;;;;;;;;;;4995010;28;20682;-60
2022/02/20 12:36:05;;;;;;;5.43;2.10;;;;;;;;;;5027822;28;20185;-57
2022/02/20 12:38:31;;;;;;;2.70;1.90;;;;;;;;;;5010848;28;20209;-57
2022/02/20 12:40:57;;;;;;;8.97;2.83;;;;;;;;;;5017803;28;20531;-56
2022/02/20 12:43:24;;;;;;;6.40;2.70;;;;;;;;;;5029827;28;20169;-57
2022/02/20 12:45:50;;;;;;;9.60;2.97;;;;;;;;;;5013580;28;20178;-57
2022/02/20 12:48:17;;;;;;;5.77;2.53;;;;;;;;;;5028910;28;20189;-57
2022/02/20 12:50:44;;;;;;;4.83;2.37;;;;;;;;;;5026845;28;20546;-57
2022/02/20 12:53:10;;;;;;;8.23;2.53;;;;;;;;;;5035178;28;20209;-56
2022/02/20 12:55:37;;;;;;;5.37;2.70;;;;;;;;;;5011920;28;20648;-57
2022/02/20 12:58:05;;;;;;;6.17;3.10;;;;;;;;;;5018400;28;20662;-57
2022/02/20 13:00:33;;;;;;;7.23;2.10;;;;;;;;;;5003454;28;20674;-57
2022/02/20 13:02:59;;;;;;;10.97;6.20;;;;;;;;;;5026817;28;20729;-61
2022/02/20 13:05:33;;;;;;;77.20;51.50;;;;;;;;;;5011566;28;20192;-57
2022/02/20 13:08:13;;;;;;;99.83;65.47;;;;;;;;;;5030086;28;20192;-57
2022/02/20 13:10:41;;;;;;;135.00;84.17;;;;;;;;;;5012294;28;20612;-58
2022/02/20 13:13:07;;;;;;;103.90;66.23;;;;;;;;;;5018354;28;20188;-57
2022/02/20 13:15:37;;;;;;;134.07;88.63;;;;;;;;;;5032937;28;20265;-57
2022/02/20 13:18:07;;;;;;;112.27;75.67;;;;;;;;;;5029476;28;20292;-55
2022/02/20 13:20:36;;;;;;;97.93;65.53;;;;;;;;;;5016523;28;20185;-55
2022/02/20 13:23:14;;;;;;;82.90;59.77;;;;;;;;;;5031791;28;20211;-56
2022/02/20 13:25:40;;;;;;;85.20;55.83;;;;;;;;;;5012216;28;20169;-56
2022/02/20 13:28:07;;;;;;;237.57;160.00;;;;;;;;;;5021515;28;20234;-56
2022/02/20 13:30:34;;;;;;;92.30;63.07;;;;;;;;;;4992111;28;20574;-56
2022/02/20 13:33:13;;;;;;;188.30;127.40;;;;;;;;;;5013034;28;20491;-56
2022/02/20 13:35:40;;;;;;;217.30;142.53;;;;;;;;;;5001269;28;20240;-56
2022/02/20 13:38:08;;;;;;;269.87;189.47;;;;;;;;;;4991876;28;20222;-59
2022/02/20 13:40:37;;;;;;;283.97;197.63;;;;;;;;;;4991905;28;20193;-56
2022/02/20 13:43:08;;;;;;;218.30;150.33;;;;;;;;;;5010353;28;20688;-56
2022/02/20 13:45:36;;;;;;;214.13;139.40;;;;;;;;;;5009330;28;20178;-56
2022/02/20 13:48:02;;;;;;;172.30;116.50;;;;;;;;;;5021136;28;20187;-57
2022/02/20 13:50:29;;;;;;;138.67;97.43;;;;;;;;;;5012970;28;20694;-56
2022/02/20 13:52:55;;;;;;;67.87;40.77;;;;;;;;;;5008604;28;20190;-53
2022/02/20 13:55:27;;;;;;;46.67;23.13;;;;;;;;;;4990882;28;20200;-55
2022/02/20 13:57:57;;;;;;;22.00;14.37;;;;;;;;;;5008803;28;20590;-55
2022/02/20 14:00:23;;;;;;;22.40;11.77;;;;;;;;;;5008887;28;20224;-56
2022/02/20 14:02:50;;;;;;;15.77;7.47;;;;;;;;;;5009677;28;20182;-55
2022/02/20 14:05:20;;;;;;;12.13;5.17;;;;;;;;;;4996836;28;20178;-56
2022/02/20 14:07:47;;;;;;;12.13;4.53;;;;;;;;;;4991567;28;20185;-58
2022/02/20 14:10:16;;;;;;;10.93;4.97;;;;;;;;;;4989574;28;20214;-57
2022/02/20 14:12:46;;;;;;;13.53;5.10;;;;;;;;;;5008158;28;20232;-58
2022/02/20 14:15:14;;;;;;;12.03;5.20;;;;;;;;;;4987598;28;20240;-58
2022/02/20 14:17:50;;;;;;;8.63;4.03;;;;;;;;;;5009004;28;20240;-58
2022/02/20 14:20:24;;;;;;;10.03;4.37;;;;;;;;;;4986783;28;20220;-58
2022/02/20 14:22:51;;;;;;;16.03;4.70;;;;;;;;;;5014340;28;20269;-58
2022/02/20 14:25:19;;;;;;;8.20;3.93;;;;;;;;;;5004962;28;20213;-58
2022/02/20 14:27:49;;;;;;;7.00;4.20;;;;;;;;;;5009924;28;20324;-58
2022/02/20 14:30:26;;;;;;;13.20;4.57;;;;;;;;;;5028406;28;20216;-58
2022/02/20 14:32:55;;;;;;;5.93;3.47;;;;;;;;;;5033186;28;20200;-58
2022/02/20 14:35:22;;;;;;;7.90;3.30;;;;;;;;;;4996795;28;20268;-58
2022/02/20 14:37:55;;;;;;;6.90;3.10;;;;;;;;;;5027816;28;20209;-58
2022/02/20 14:40:21;;;;;;;8.00;3.53;;;;;;;;;;5034010;28;20178;-58
2022/02/20 14:42:47;;;;;;;11.07;3.60;;;;;;;;;;5030465;28;20211;-58
2022/02/20 14:45:13;;;;;;;9.93;3.50;;;;;;;;;;5030979;28;20173;-57